Aeroporto :
LOGIN :

Iscrizione | Disclaimer

   EN    FR    IT 

 










Sommario :    VFR   VFR Marginale   IFR   IFR Intensivo   IFR Molto Intensivo
Visibilità : 
Base nubi : 
>= 8 km
>= 3000ft
5 / 8 km
1000 / 3000 ft
1500m / 5 km
500 / 1000 ft
800 / 1500m
200 / 500 ft
< 800m
< 200 ft
Simboli :   Temporali  Nebbia  Neve Forte  Precipitazioni Forti  Vento > 20 kt
SIGMETs :   Varie  Temporali  Ghiacco  Turbolenza  Onda orograficha  Ceneri Vulcaniche






- Altitudine del aeroporto : 144 ft
- Codice IATA : PGF


LFMP - Perpignan

ULTIMO METAR :
  • 212330Z AUTO 25003KT 9999 FEW022 SCT090 BKN190 14/11 Q1020

METARs OBSOLETI :
  • 212300Z AUTO 27002KT 9999 BKN100 BKN190 BKN220 14/11 Q1020
  • 212230Z AUTO VRB02KT 9999 -RA FEW022 BKN110 BKN140 14/12 Q1020
  • 212200Z AUTO VRB02KT 9999 SCT023 BKN036 BKN100 15/11 Q1020
  • 212130Z AUTO VRB02KT 9999 FEW022 BKN034 14/12 Q1020 NOSIG
  • 212100Z AUTO 30003KT 9999 FEW022 BKN036 14/11 Q1020 NOSIG

TAF TAF LFMP
Valido dal 21 a 15 ore il 22 a 15 ore UTC


211400Z 2115/2215 VRB05KT 9999 SCT040 BKN070
TEMPO 2203/2215 31015G30KT 2000 +TSRA BKN005 BKN050CB
PROB30
TEMPO 2206/2212 0800 TSGR FG BKN010 BKN030CB
ATIS : +33 4 68 63 75 12



MetMap, La meteo Aeronautica in un colpo d'occhio ! - Copyright ORBIFLY Dicembre 2007 - Disclaimer

ORBIFLY MET'MAP TEAM :

Programmazione e sviluppo : Alexandra Zaïnal
Concezione e sviluppo : Baudouin d'Aumeries
Co-Programmazione e sviluppo : Marc-Olivier Méhu
Supporto tecnico e logistico : Manuel Goepfert
Aiuto per la traduzione : Arnaldo La Scala

Contatto : metmap@orbifly.com




FONTI E CREDITI :

   NOAA